createdAt,value
2022-09-05T00:01:27.937Z,10.33
2022-09-05T00:04:08.374Z,9.17
2022-09-05T00:06:53.656Z,9.00
2022-09-05T00:09:43.541Z,11.03
2022-09-05T00:12:12.151Z,9.77
2022-09-05T00:15:16.142Z,10.33
2022-09-05T00:19:45.135Z,8.60
2022-09-05T00:24:27.421Z,8.77
2022-09-05T00:24:29.482Z,10.00
2022-09-05T00:26:30.203Z,11.13
2022-09-05T00:29:03.361Z,8.10
2022-09-05T00:31:55.224Z,8.67
2022-09-05T00:34:47.891Z,11.07
2022-09-05T00:37:26.313Z,9.97
2022-09-05T00:40:17.702Z,10.03
2022-09-05T00:42:43.982Z,11.37
2022-09-05T00:45:19.834Z,9.03
2022-09-05T00:47:48.352Z,10.97
2022-09-05T00:50:19.768Z,7.23
2022-09-05T00:53:06.688Z,8.53
2022-09-05T00:55:39.487Z,8.40
2022-09-05T00:58:07.025Z,10.47
2022-09-05T01:00:54.628Z,9.17
2022-09-05T01:03:32.463Z,9.60
2022-09-05T01:06:21.166Z,10.77
2022-09-05T01:09:14.421Z,9.87
2022-09-05T01:11:41.327Z,9.90
2022-09-05T01:14:12.747Z,8.13
2022-09-05T01:16:43.152Z,7.43
2022-09-05T01:19:15.997Z,10.47
2022-09-05T01:21:56.101Z,11.53
2022-09-05T01:28:22.328Z,9.10
2022-09-05T01:30:37.875Z,8.37
2022-09-05T01:33:05.966Z,9.53
2022-09-05T01:35:54.940Z,9.63
2022-09-05T01:40:12.289Z,7.10
2022-09-05T01:41:52.546Z,10.10
2022-09-05T01:44:23.261Z,9.87
2022-09-05T01:46:57.457Z,11.50
2022-09-05T01:49:26.986Z,10.60
2022-09-05T01:52:12.777Z,9.93
2022-09-05T01:54:40.295Z,8.77
2022-09-05T01:57:26.173Z,11.20
2022-09-05T02:00:01.563Z,8.93
2022-09-05T02:02:50.113Z,14.30
2022-09-05T02:05:47.597Z,9.57
2022-09-05T02:08:30.143Z,10.53
2022-09-05T02:11:07.907Z,7.90
2022-09-05T02:13:34.849Z,10.87
2022-09-05T02:16:08.953Z,8.47
2022-09-05T02:18:54.321Z,9.33
2022-09-05T02:21:29.761Z,14.57
2022-09-05T02:24:09.016Z,9.40
2022-09-05T02:26:36.312Z,11.17
2022-09-05T02:29:11.253Z,9.30
2022-09-05T02:31:42.684Z,11.43
2022-09-05T02:34:15.963Z,10.80
2022-09-05T02:36:48.663Z,9.80
2022-09-05T02:45:00.090Z,12.23
2022-09-05T02:45:12.933Z,9.50
2022-09-05T02:45:26.768Z,10.97
2022-09-05T02:48:15.172Z,12.33
2022-09-05T02:57:18.902Z,11.77
2022-09-05T02:57:35.241Z,10.27
2022-09-05T02:57:35.920Z,14.77
2022-09-05T02:59:13.431Z,9.93
2022-09-05T03:01:48.614Z,10.40
2022-09-05T03:04:18.678Z,14.50
2022-09-05T03:07:04.113Z,10.27
2022-09-05T03:09:46.414Z,10.90
2022-09-05T03:12:29.949Z,10.27
2022-09-05T03:15:03.584Z,10.17
2022-09-05T03:17:55.183Z,16.67
2022-09-05T03:20:28.382Z,11.80
2022-09-05T03:23:13.793Z,9.60
2022-09-05T03:25:50.156Z,9.47
2022-09-05T03:28:20.029Z,13.00
2022-09-05T03:30:56.603Z,9.87
2022-09-05T03:33:29.470Z,14.00
2022-09-05T03:35:59.929Z,11.77
2022-09-05T03:38:27.082Z,11.90
2022-09-05T03:41:01.851Z,14.13
2022-09-05T03:43:47.192Z,15.10
2022-09-05T03:46:23.376Z,12.20
2022-09-05T03:48:53.443Z,11.87
2022-09-05T03:57:04.688Z,15.17
2022-09-05T03:57:23.100Z,11.87
2022-09-05T03:57:43.295Z,11.80
2022-09-05T04:00:23.346Z,11.00
2022-09-05T04:08:10.246Z,13.68
2022-09-05T04:08:20.758Z,13.40
2022-09-05T04:08:55.414Z,12.50
2022-09-05T04:11:22.421Z,12.83
2022-09-05T04:13:55.677Z,10.80
2022-09-05T04:16:25.614Z,12.27
2022-09-05T04:19:07.494Z,9.67
2022-09-05T04:21:36.741Z,13.47
2022-09-05T04:24:06.901Z,11.00
2022-09-05T04:26:48.238Z,12.13
2022-09-05T04:29:36.175Z,15.00
2022-09-05T04:32:18.689Z,13.80
2022-09-05T04:35:06.179Z,14.37
2022-09-05T04:37:48.606Z,14.83
2022-09-05T04:40:35.137Z,12.10
2022-09-05T04:43:04.663Z,12.47
2022-09-05T04:45:36.696Z,14.47
2022-09-05T04:48:05.963Z,11.87
2022-09-05T04:50:40.231Z,12.57
2022-09-05T04:53:28.753Z,13.70
2022-09-05T04:55:58.176Z,15.30
2022-09-05T04:59:41.870Z,12.97
2022-09-05T05:06:04.257Z,16.13
2022-09-05T05:06:13.504Z,13.43
2022-09-05T05:07:11.433Z,14.13
2022-09-05T05:09:45.179Z,13.33
2022-09-05T05:17:59.346Z,14.30
2022-09-05T05:18:14.371Z,14.77
2022-09-05T05:18:49.183Z,15.57
2022-09-05T05:20:55.082Z,12.53
2022-09-05T05:23:39.708Z,13.27
2022-09-05T05:26:08.538Z,15.03
2022-09-05T05:28:41.559Z,14.37
2022-09-05T05:31:10.200Z,14.20
2022-09-05T05:33:39.179Z,17.07
2022-09-05T05:36:09.292Z,15.53
2022-09-05T05:38:40.288Z,17.17
2022-09-05T05:41:10.284Z,14.87
2022-09-05T05:43:40.841Z,17.40
2022-09-05T05:46:31.999Z,15.83
2022-09-05T05:49:25.267Z,13.60
2022-09-05T05:52:04.726Z,12.33
2022-09-05T05:54:36.971Z,15.57
2022-09-05T05:57:16.087Z,16.77
2022-09-05T06:00:01.462Z,17.00
2022-09-05T06:02:43.918Z,12.10
2022-09-05T06:05:11.009Z,14.47
2022-09-05T06:12:29.448Z,16.03
2022-09-05T06:14:48.279Z,14.00
2022-09-05T06:15:00.479Z,14.10
2022-09-05T06:16:54.853Z,12.77
2022-09-05T06:21:03.319Z,14.50
2022-09-05T06:22:29.056Z,14.73
2022-09-05T06:24:58.495Z,11.90
2022-09-05T06:28:17.612Z,12.17
2022-09-05T06:30:45.664Z,14.27
2022-09-05T06:33:21.551Z,14.33
2022-09-05T06:35:49.160Z,12.17
2022-09-05T06:38:37.484Z,15.33
2022-09-05T06:41:04.801Z,11.90
2022-09-05T06:43:37.785Z,12.30
2022-09-05T06:46:10.529Z,12.97
2022-09-05T06:49:30.401Z,10.80
2022-09-05T06:51:45.289Z,11.80
2022-09-05T06:54:22.409Z,10.13
2022-09-05T06:57:01.375Z,9.87
2022-09-05T06:59:40.507Z,11.37
2022-09-05T07:02:59.555Z,12.10
2022-09-05T07:05:38.720Z,11.37
2022-09-05T07:08:29.864Z,11.10
2022-09-05T07:11:16.737Z,13.10
2022-09-05T07:13:53.382Z,10.30
2022-09-05T07:16:37.992Z,11.33
2022-09-05T07:19:27.157Z,9.83
2022-09-05T07:22:06.479Z,10.13
2022-09-05T07:24:55.686Z,9.73
2022-09-05T07:27:30.085Z,10.63
2022-09-05T07:30:01.967Z,8.60
2022-09-05T07:32:30.067Z,11.90
2022-09-05T07:34:58.985Z,8.47
2022-09-05T07:37:29.253Z,8.93
2022-09-05T07:40:11.591Z,8.83
2022-09-05T07:43:08.785Z,8.33
2022-09-05T07:45:37.812Z,10.03
2022-09-05T07:48:14.364Z,8.90
2022-09-05T07:56:49.749Z,12.93
2022-09-05T07:56:56.044Z,8.50
2022-09-05T07:57:03.162Z,13.00
2022-09-05T07:59:34.858Z,8.93
2022-09-05T08:02:02.448Z,8.33
2022-09-05T08:04:31.269Z,12.23
2022-09-05T08:07:47.511Z,7.53
2022-09-05T08:10:08.008Z,9.87
2022-09-05T08:12:44.980Z,6.90
2022-09-05T08:15:51.038Z,6.97
2022-09-05T08:18:20.175Z,10.83
2022-09-05T08:20:59.307Z,10.53
2022-09-05T08:23:44.586Z,8.07
2022-09-05T08:26:34.929Z,8.17
2022-09-05T08:29:09.536Z,6.03
2022-09-05T08:31:41.691Z,10.20
2022-09-05T08:34:38.117Z,11.60
2022-09-05T08:37:21.279Z,10.37
2022-09-05T08:39:50.712Z,25.07
2022-09-05T08:44:51.060Z,7.17
2022-09-05T08:46:43.692Z,7.57
2022-09-05T08:49:03.496Z,10.57
2022-09-05T08:51:54.295Z,9.27
2022-09-05T08:54:45.635Z,8.13
2022-09-05T08:57:18.473Z,10.40
2022-09-05T09:00:19.380Z,8.03
2022-09-05T09:02:46.905Z,12.23
2022-09-05T09:05:24.765Z,10.07
2022-09-05T09:08:22.268Z,5.60
2022-09-05T09:10:55.716Z,5.77
2022-09-05T09:13:29.898Z,10.30
2022-09-05T09:15:56.917Z,6.03
2022-09-05T09:18:26.300Z,7.67
2022-09-05T09:20:56.580Z,6.67
2022-09-05T09:23:32.172Z,7.57
2022-09-05T09:26:13.564Z,6.87
2022-09-05T09:29:02.526Z,9.63
2022-09-05T09:31:48.181Z,8.20
2022-09-05T09:34:29.064Z,10.13
2022-09-05T09:37:15.079Z,7.17
2022-09-05T09:39:48.323Z,8.97
2022-09-05T09:42:33.753Z,7.17
2022-09-05T09:45:21.659Z,6.77
2022-09-05T09:48:14.304Z,6.90
2022-09-05T09:50:58.938Z,5.80
2022-09-05T09:53:29.933Z,7.13
2022-09-05T09:56:14.168Z,6.40
2022-09-05T09:58:59.648Z,6.03
2022-09-05T10:01:37.288Z,4.43
2022-09-05T10:10:14.954Z,8.00
2022-09-05T10:10:49.592Z,7.10
2022-09-05T10:10:56.269Z,5.67
2022-09-05T10:13:10.971Z,5.17
2022-09-05T10:15:40.586Z,6.87
2022-09-05T10:18:26.209Z,11.70
2022-09-05T10:21:17.014Z,10.20
2022-09-05T10:24:03.209Z,7.83
2022-09-05T10:26:33.248Z,5.90
2022-09-05T10:29:38.537Z,5.90
2022-09-05T10:35:04.855Z,7.90
2022-09-05T10:35:21.427Z,7.07
2022-09-05T10:37:55.957Z,4.83
2022-09-05T10:40:24.390Z,11.33
2022-09-05T10:43:01.092Z,5.53
2022-09-05T10:45:47.273Z,6.37
2022-09-05T10:48:16.948Z,4.93
2022-09-05T10:50:45.010Z,4.97
2022-09-05T10:53:39.241Z,6.47
2022-09-05T10:56:11.239Z,5.83
2022-09-05T11:01:29.707Z,6.10
2022-09-05T11:02:20.472Z,4.93
2022-09-05T11:04:46.626Z,5.97
2022-09-05T11:07:31.868Z,8.50
2022-09-05T11:09:59.738Z,5.13
2022-09-05T11:12:32.440Z,5.77
2022-09-05T11:15:02.783Z,6.17
2022-09-05T11:17:29.828Z,9.97
2022-09-05T11:20:23.756Z,9.00
2022-09-05T11:23:04.145Z,5.93
2022-09-05T11:25:39.879Z,8.43
2022-09-05T11:28:14.157Z,5.90
2022-09-05T11:30:43.877Z,5.50
2022-09-05T11:36:27.535Z,4.43
2022-09-05T11:40:00.164Z,4.97
2022-09-05T11:40:09.799Z,6.30
2022-09-05T11:42:37.668Z,5.80
2022-09-05T11:45:24.641Z,6.07
2022-09-05T11:47:51.515Z,5.33
2022-09-05T11:50:37.316Z,5.70
2022-09-05T11:53:23.023Z,7.43
2022-09-05T11:55:56.128Z,6.90
2022-09-05T12:01:41.383Z,5.23
2022-09-05T12:04:18.303Z,5.73
2022-09-05T12:06:49.485Z,5.50
2022-09-05T12:09:32.047Z,4.90
2022-09-05T12:12:06.432Z,6.63
2022-09-05T12:15:07.271Z,6.37
2022-09-05T12:17:40.603Z,4.40
2022-09-05T12:20:21.899Z,5.00
2022-09-05T12:22:52.268Z,4.93
2022-09-05T12:27:41.390Z,5.23
2022-09-05T12:29:27.109Z,4.73
2022-09-05T12:32:30.560Z,4.90
2022-09-05T12:36:02.003Z,8.60
2022-09-05T12:39:30.276Z,6.80
2022-09-05T12:40:55.075Z,5.97
2022-09-05T12:41:33.193Z,5.17
2022-09-05T12:42:38.697Z,5.00
2022-09-05T12:45:37.724Z,4.63
2022-09-05T12:48:23.569Z,12.50
2022-09-05T12:50:59.157Z,5.37
2022-09-05T12:53:35.332Z,5.07
2022-09-05T12:56:56.922Z,6.20
2022-09-05T13:03:01.615Z,5.27
2022-09-05T13:03:08.861Z,4.97
2022-09-05T13:04:32.026Z,7.33
2022-09-05T13:07:04.313Z,3.50
2022-09-05T13:11:06.468Z,5.80
2022-09-05T13:14:49.744Z,7.20
2022-09-05T13:15:47.821Z,4.17
2022-09-05T13:18:39.379Z,4.20
2022-09-05T13:21:22.977Z,4.37
2022-09-05T13:23:50.921Z,4.77
2022-09-05T13:26:23.966Z,8.47
2022-09-05T13:29:10.688Z,4.83
2022-09-05T13:37:54.139Z,7.70
2022-09-05T13:38:06.611Z,4.30
2022-09-05T13:38:13.700Z,6.30
2022-09-05T13:40:23.260Z,4.33
2022-09-05T13:43:00.324Z,3.23
2022-09-05T13:45:27.297Z,10.97
2022-09-05T13:47:57.157Z,5.47
2022-09-05T13:50:24.215Z,6.20
2022-09-05T13:53:15.575Z,7.80
2022-09-05T13:56:03.197Z,4.60
2022-09-05T13:58:30.684Z,6.00
2022-09-05T14:01:24.516Z,4.43
2022-09-05T14:03:56.202Z,4.23
2022-09-05T14:06:46.414Z,4.73
2022-09-05T14:12:00.345Z,4.53
2022-09-05T14:20:28.218Z,5.80
2022-09-05T14:23:01.279Z,5.57
2022-09-05T14:25:29.655Z,4.53
2022-09-05T14:27:59.423Z,3.90
2022-09-05T14:33:13.805Z,5.90
2022-09-05T14:37:48.498Z,4.60
2022-09-05T14:37:52.817Z,6.63
2022-09-05T14:39:25.396Z,5.57
2022-09-05T14:42:10.906Z,4.70
2022-09-05T14:44:46.706Z,5.63
2022-09-05T14:47:35.849Z,5.03
2022-09-05T14:50:06.376Z,4.37
2022-09-05T14:52:35.484Z,7.87
2022-09-05T15:02:52.711Z,5.57
2022-09-05T15:02:58.669Z,7.87
2022-09-05T15:06:37.587Z,7.27
2022-09-05T15:11:42.650Z,5.73
2022-09-05T15:12:23.312Z,5.47
2022-09-05T15:14:45.676Z,6.70
2022-09-05T15:17:20.353Z,7.53
2022-09-05T15:20:02.337Z,7.37
2022-09-05T15:22:35.547Z,4.83
2022-09-05T15:25:12.158Z,5.63
2022-09-05T15:27:45.440Z,4.93
2022-09-05T15:30:35.440Z,5.80
2022-09-05T15:33:25.331Z,6.43
2022-09-05T15:35:53.588Z,5.60
2022-09-05T15:38:22.794Z,4.20
2022-09-05T15:41:09.287Z,5.30
2022-09-05T15:43:59.991Z,5.67
2022-09-05T15:47:03.919Z,6.17
2022-09-05T15:49:31.094Z,6.50
2022-09-05T15:52:18.247Z,5.93
2022-09-05T15:54:51.038Z,4.00
2022-09-05T15:57:33.203Z,8.57
2022-09-05T16:00:06.244Z,6.20
2022-09-05T16:02:34.994Z,14.43
2022-09-05T16:10:31.698Z,9.40
2022-09-05T16:10:37.564Z,8.37
2022-09-05T16:11:07.036Z,7.83
2022-09-05T16:13:33.788Z,12.13
2022-09-05T16:23:13.707Z,14.60
2022-09-05T16:23:25.846Z,12.63
2022-09-05T16:23:26.985Z,14.13
2022-09-05T16:24:59.737Z,13.27
2022-09-05T16:27:43.598Z,15.20
2022-09-05T16:30:15.693Z,9.07
2022-09-05T16:32:51.011Z,16.23
2022-09-05T16:35:18.722Z,7.83
2022-09-05T16:38:06.216Z,8.27
2022-09-05T16:40:35.852Z,9.17
2022-09-05T16:43:08.912Z,8.73
2022-09-05T16:45:39.004Z,10.00
2022-09-05T16:48:09.013Z,5.43
2022-09-05T16:50:40.950Z,10.30
2022-09-05T16:53:30.119Z,13.30
2022-09-05T16:56:00.107Z,9.73
2022-09-05T16:58:41.879Z,9.33
2022-09-05T17:01:27.651Z,7.97
2022-09-05T17:03:56.605Z,10.33
2022-09-05T17:06:31.549Z,13.40
2022-09-05T17:09:13.084Z,13.90
2022-09-05T17:12:00.880Z,14.60
2022-09-05T17:14:41.753Z,12.13
2022-09-05T17:17:36.138Z,10.57
2022-09-05T17:20:09.784Z,15.13
2022-09-05T17:27:22.886Z,22.37
2022-09-05T17:29:24.244Z,20.60
2022-09-05T17:29:41.272Z,15.50
2022-09-05T17:31:53.518Z,16.60
2022-09-05T17:34:24.414Z,16.50
2022-09-05T17:37:01.648Z,13.87
2022-09-05T17:39:44.444Z,14.80
2022-09-05T17:42:34.481Z,10.50
2022-09-05T17:45:01.440Z,15.67
2022-09-05T17:47:36.020Z,17.70
2022-09-05T17:50:11.666Z,25.27
2022-09-05T17:52:58.978Z,26.60
2022-09-05T17:55:35.219Z,25.90
2022-09-05T17:58:20.913Z,23.70
2022-09-05T18:00:50.910Z,27.23
2022-09-05T18:03:36.317Z,15.50
2022-09-05T18:06:06.788Z,17.30
2022-09-05T18:08:46.001Z,16.87
2022-09-05T18:11:25.502Z,15.00
2022-09-05T18:17:35.990Z,16.00
2022-09-05T18:19:46.366Z,13.23
2022-09-05T18:22:26.072Z,15.27
2022-09-05T18:25:27.238Z,12.40
2022-09-05T18:28:04.980Z,13.07
2022-09-05T18:33:54.651Z,13.20
2022-09-05T18:35:55.043Z,17.83
2022-09-05T18:38:50.939Z,15.10
2022-09-05T18:41:18.952Z,11.47
2022-09-05T18:44:12.608Z,12.60
2022-09-05T18:46:42.403Z,15.33
2022-09-05T18:50:09.868Z,15.50
2022-09-05T18:52:00.684Z,12.70
2022-09-05T18:54:29.006Z,15.20
2022-09-05T18:57:26.545Z,16.03
2022-09-05T18:59:55.425Z,15.63
2022-09-05T19:02:32.118Z,18.07
2022-09-05T19:05:16.046Z,11.37
2022-09-05T19:07:48.177Z,16.50
2022-09-05T19:10:36.225Z,14.00
2022-09-05T19:13:11.014Z,13.03
2022-09-05T19:16:06.647Z,18.40
2022-09-05T19:19:00.695Z,21.63
2022-09-05T19:21:29.744Z,14.27
2022-09-05T19:24:02.877Z,15.97
2022-09-05T19:26:31.468Z,14.53
2022-09-05T19:35:54.455Z,14.20
2022-09-05T19:36:47.484Z,11.10
2022-09-05T19:36:54.504Z,11.67
2022-09-05T19:37:38.669Z,9.57
2022-09-05T19:47:26.709Z,11.20
2022-09-05T19:47:28.367Z,16.70
2022-09-05T19:47:57.513Z,11.63
2022-09-05T19:48:35.701Z,12.77
2022-09-05T19:51:17.209Z,11.60
2022-09-05T19:54:04.947Z,12.40
2022-09-05T19:56:36.711Z,12.30
2022-09-05T19:59:14.715Z,18.20
2022-09-05T20:01:46.069Z,11.03
2022-09-05T20:04:19.935Z,12.03
2022-09-05T20:06:47.675Z,11.70
2022-09-05T20:09:17.393Z,11.73
2022-09-05T20:12:03.841Z,12.73
2022-09-05T20:14:36.852Z,14.63
2022-09-05T20:17:22.871Z,14.27
2022-09-05T20:19:50.224Z,10.27
2022-09-05T20:22:48.831Z,12.83
2022-09-05T20:25:35.646Z,10.70
2022-09-05T20:28:09.791Z,12.83
2022-09-05T20:30:37.726Z,9.80
2022-09-05T20:33:09.469Z,10.07
2022-09-05T20:41:32.130Z,12.17
2022-09-05T20:43:21.000Z,10.60
2022-09-05T20:43:31.023Z,8.00
2022-09-05T20:44:22.448Z,11.60
2022-09-05T20:50:51.330Z,7.47
2022-09-05T20:54:08.934Z,12.67
2022-09-05T20:54:18.049Z,8.40
2022-09-05T20:55:40.131Z,8.93
2022-09-05T20:58:09.492Z,10.97
2022-09-05T21:00:37.809Z,7.67
2022-09-05T21:03:08.652Z,9.03
2022-09-05T21:05:38.844Z,10.30
2022-09-05T21:08:21.174Z,6.67
2022-09-05T21:10:57.995Z,11.00
2022-09-05T21:13:52.411Z,6.23
2022-09-05T21:16:21.713Z,7.23
2022-09-05T21:18:50.810Z,8.13
2022-09-05T21:21:28.656Z,6.33
2022-09-05T21:23:59.809Z,7.17
2022-09-05T21:26:37.081Z,8.23
2022-09-05T21:29:06.949Z,6.27
2022-09-05T21:31:49.244Z,6.47
2022-09-05T21:34:26.279Z,6.90
2022-09-05T21:37:06.365Z,5.57
2022-09-05T21:39:55.335Z,8.03
2022-09-05T21:46:34.340Z,6.40
2022-09-05T21:47:37.715Z,5.83
2022-09-05T21:48:05.862Z,5.73
2022-09-05T21:50:35.857Z,9.70
2022-09-05T21:53:45.283Z,9.40
2022-09-05T21:59:20.937Z,8.07
2022-09-05T21:59:26.136Z,5.97
2022-09-05T22:01:46.317Z,5.87
2022-09-05T22:04:15.542Z,6.43
2022-09-05T22:06:44.972Z,5.97
2022-09-05T22:09:14.406Z,4.90
2022-09-05T22:11:41.513Z,6.40
2022-09-05T22:14:09.321Z,6.73
2022-09-05T22:16:37.536Z,5.90
2022-09-05T22:19:11.890Z,5.87
2022-09-05T22:21:39.317Z,9.13
2022-09-05T22:24:08.882Z,5.00
2022-09-05T22:26:38.016Z,6.93
2022-09-05T22:29:17.698Z,7.23
2022-09-05T22:31:44.645Z,5.77
2022-09-05T22:34:12.148Z,10.33
2022-09-05T22:36:39.022Z,5.37
2022-09-05T22:39:06.655Z,6.63
2022-09-05T22:41:33.524Z,5.77
2022-09-05T22:44:00.469Z,8.50
2022-09-05T22:46:27.502Z,6.10
2022-09-05T22:48:54.458Z,5.27
2022-09-05T22:51:21.321Z,7.30
2022-09-05T22:53:48.170Z,6.40
2022-09-05T22:56:28.494Z,7.07
2022-09-05T22:58:55.498Z,11.10
2022-09-05T23:01:22.324Z,5.93
2022-09-05T23:03:49.369Z,5.30
2022-09-05T23:06:16.268Z,6.27
2022-09-05T23:08:43.267Z,6.83
2022-09-05T23:11:11.504Z,6.80
2022-09-05T23:13:38.841Z,8.33
2022-09-05T23:16:05.962Z,6.33
2022-09-05T23:18:32.951Z,7.20
2022-09-05T23:21:07.559Z,6.27
2022-09-05T23:23:36.108Z,5.97
2022-09-05T23:26:04.323Z,5.43
2022-09-05T23:28:31.408Z,7.97
2022-09-05T23:31:01.839Z,7.03
2022-09-05T23:33:29.389Z,7.43
2022-09-05T23:36:00.220Z,5.43
2022-09-05T23:38:27.575Z,5.13
2022-09-05T23:41:05.320Z,5.33
2022-09-05T23:43:32.557Z,4.87
2022-09-05T23:45:59.602Z,7.23
2022-09-05T23:48:27.165Z,6.97
2022-09-05T23:50:54.081Z,7.13
2022-09-05T23:53:21.277Z,4.67
2022-09-05T23:55:48.205Z,5.37
2022-09-05T23:58:15.510Z,9.57
